sensor_id;sensor_type;location;lat;lon;timestamp;P1;durP1;ratioP1;P2;durP2;ratioP2
70213;SDS011;60138;55.808;37.078;2023-03-01T00:01:12;6.07;;;3.40;;
70213;SDS011;60138;55.808;37.078;2023-03-01T00:03:46;4.13;;;3.00;;
70213;SDS011;60138;55.808;37.078;2023-03-01T00:06:12;5.55;;;3.83;;
70213;SDS011;60138;55.808;37.078;2023-03-01T00:08:38;8.40;;;4.22;;
70213;SDS011;60138;55.808;37.078;2023-03-01T00:13:35;5.20;;;3.70;;
70213;SDS011;60138;55.808;37.078;2023-03-01T00:16:02;6.73;;;3.80;;
70213;SDS011;60138;55.808;37.078;2023-03-01T00:18:32;5.82;;;3.45;;
70213;SDS011;60138;55.808;37.078;2023-03-01T00:20:58;6.28;;;3.80;;
70213;SDS011;60138;55.808;37.078;2023-03-01T00:23:23;4.80;;;3.63;;
70213;SDS011;60138;55.808;37.078;2023-03-01T00:25:49;6.15;;;3.67;;
70213;SDS011;60138;55.808;37.078;2023-03-01T00:28:16;6.57;;;4.50;;
70213;SDS011;60138;55.808;37.078;2023-03-01T00:30:42;3.83;;;3.50;;
70213;SDS011;60138;55.808;37.078;2023-03-01T00:33:08;4.47;;;3.60;;
70213;SDS011;60138;55.808;37.078;2023-03-01T00:35:34;4.53;;;3.53;;
70213;SDS011;60138;55.808;37.078;2023-03-01T00:38:00;8.00;;;3.55;;
70213;SDS011;60138;55.808;37.078;2023-03-01T00:40:27;5.50;;;3.38;;
70213;SDS011;60138;55.808;37.078;2023-03-01T00:42:54;5.37;;;2.93;;
70213;SDS011;60138;55.808;37.078;2023-03-01T00:45:20;4.07;;;3.42;;
70213;SDS011;60138;55.808;37.078;2023-03-01T00:47:46;5.57;;;3.50;;
70213;SDS011;60138;55.808;37.078;2023-03-01T00:50:13;3.95;;;3.60;;
70213;SDS011;60138;55.808;37.078;2023-03-01T00:52:39;6.38;;;3.10;;
70213;SDS011;60138;55.808;37.078;2023-03-01T00:55:05;6.63;;;3.90;;
70213;SDS011;60138;55.808;37.078;2023-03-01T00:57:33;3.60;;;3.30;;
70213;SDS011;60138;55.808;37.078;2023-03-01T00:59:58;3.38;;;3.08;;
70213;SDS011;60138;55.808;37.078;2023-03-01T01:02:24;5.30;;;3.10;;
70213;SDS011;60138;55.808;37.078;2023-03-01T01:04:50;4.28;;;3.60;;
70213;SDS011;60138;55.808;37.078;2023-03-01T01:07:16;3.35;;;3.05;;
70213;SDS011;60138;55.808;37.078;2023-03-01T01:09:43;5.28;;;3.67;;
70213;SDS011;60138;55.808;37.078;2023-03-01T01:12:08;4.27;;;3.50;;
70213;SDS011;60138;55.808;37.078;2023-03-01T01:14:34;3.80;;;3.40;;
70213;SDS011;60138;55.808;37.078;2023-03-01T01:17:00;8.77;;;3.80;;
70213;SDS011;60138;55.808;37.078;2023-03-01T01:19:26;8.25;;;3.85;;
70213;SDS011;60138;55.808;37.078;2023-03-01T01:21:53;12.82;;;5.47;;
70213;SDS011;60138;55.808;37.078;2023-03-01T01:24:19;9.20;;;5.38;;
70213;SDS011;60138;55.808;37.078;2023-03-01T01:26:45;12.98;;;6.18;;
70213;SDS011;60138;55.808;37.078;2023-03-01T01:29:12;15.57;;;6.87;;
70213;SDS011;60138;55.808;37.078;2023-03-01T01:31:39;12.35;;;5.75;;
70213;SDS011;60138;55.808;37.078;2023-03-01T01:34:07;16.25;;;6.72;;
70213;SDS011;60138;55.808;37.078;2023-03-01T01:36:37;18.90;;;7.53;;
70213;SDS011;60138;55.808;37.078;2023-03-01T01:39:03;15.02;;;5.60;;
70213;SDS011;60138;55.808;37.078;2023-03-01T01:41:29;13.07;;;5.20;;
70213;SDS011;60138;55.808;37.078;2023-03-01T01:46:54;16.90;;;6.20;;
70213;SDS011;60138;55.808;37.078;2023-03-01T01:52:05;7.85;;;5.97;;
70213;SDS011;60138;55.808;37.078;2023-03-01T01:54:49;5.35;;;3.80;;
70213;SDS011;60138;55.808;37.078;2023-03-01T01:57:45;4.17;;;3.67;;
70213;SDS011;60138;55.808;37.078;2023-03-01T02:00:16;6.88;;;3.63;;
70213;SDS011;60138;55.808;37.078;2023-03-01T02:02:45;3.70;;;3.40;;
70213;SDS011;60138;55.808;37.078;2023-03-01T02:07:47;3.58;;;3.25;;
70213;SDS011;60138;55.808;37.078;2023-03-01T02:10:18;4.40;;;3.55;;
70213;SDS011;60138;55.808;37.078;2023-03-01T02:12:45;6.15;;;4.03;;
70213;SDS011;60138;55.808;37.078;2023-03-01T02:15:31;4.63;;;2.73;;
70213;SDS011;60138;55.808;37.078;2023-03-01T02:17:58;3.97;;;3.08;;
70213;SDS011;60138;55.808;37.078;2023-03-01T02:22:51;6.73;;;4.03;;
70213;SDS011;60138;55.808;37.078;2023-03-01T02:30:34;3.83;;;3.50;;
70213;SDS011;60138;55.808;37.078;2023-03-01T02:33:00;6.90;;;4.15;;
70213;SDS011;60138;55.808;37.078;2023-03-01T02:35:29;5.35;;;3.53;;
70213;SDS011;60138;55.808;37.078;2023-03-01T02:38:01;6.30;;;4.33;;
70213;SDS011;60138;55.808;37.078;2023-03-01T02:40:30;4.95;;;3.38;;
70213;SDS011;60138;55.808;37.078;2023-03-01T02:42:59;4.00;;;2.47;;
70213;SDS011;60138;55.808;37.078;2023-03-01T02:45:25;3.33;;;3.07;;
70213;SDS011;60138;55.808;37.078;2023-03-01T02:47:55;5.43;;;4.13;;
70213;SDS011;60138;55.808;37.078;2023-03-01T02:53:00;6.00;;;4.63;;
70213;SDS011;60138;55.808;37.078;2023-03-01T02:55:33;5.07;;;3.97;;
70213;SDS011;60138;55.808;37.078;2023-03-01T02:57:59;4.15;;;3.45;;
70213;SDS011;60138;55.808;37.078;2023-03-01T03:00:41;5.43;;;4.43;;
70213;SDS011;60138;55.808;37.078;2023-03-01T03:03:08;7.05;;;4.20;;
70213;SDS011;60138;55.808;37.078;2023-03-01T03:05:34;8.20;;;4.15;;
70213;SDS011;60138;55.808;37.078;2023-03-01T03:08:01;6.67;;;3.80;;
70213;SDS011;60138;55.808;37.078;2023-03-01T03:10:32;6.78;;;3.58;;
70213;SDS011;60138;55.808;37.078;2023-03-01T03:13:03;3.72;;;3.13;;
70213;SDS011;60138;55.808;37.078;2023-03-01T03:15:36;4.28;;;3.88;;
70213;SDS011;60138;55.808;37.078;2023-03-01T03:18:02;6.60;;;3.78;;
70213;SDS011;60138;55.808;37.078;2023-03-01T03:20:30;5.28;;;3.78;;
70213;SDS011;60138;55.808;37.078;2023-03-01T03:22:57;4.03;;;3.63;;
70213;SDS011;60138;55.808;37.078;2023-03-01T03:25:23;7.07;;;3.50;;
70213;SDS011;60138;55.808;37.078;2023-03-01T03:27:50;6.13;;;3.92;;
70213;SDS011;60138;55.808;37.078;2023-03-01T03:30:17;5.65;;;3.97;;
70213;SDS011;60138;55.808;37.078;2023-03-01T03:32:45;5.80;;;3.90;;
70213;SDS011;60138;55.808;37.078;2023-03-01T03:35:12;5.70;;;3.72;;
70213;SDS011;60138;55.808;37.078;2023-03-01T03:37:38;6.10;;;4.27;;
70213;SDS011;60138;55.808;37.078;2023-03-01T03:40:05;5.32;;;3.42;;
70213;SDS011;60138;55.808;37.078;2023-03-01T03:42:31;7.13;;;4.68;;
70213;SDS011;60138;55.808;37.078;2023-03-01T03:44:56;40.23;;;16.87;;
70213;SDS011;60138;55.808;37.078;2023-03-01T03:47:22;113.20;;;40.37;;
70213;SDS011;60138;55.808;37.078;2023-03-01T03:49:48;144.90;;;57.50;;
70213;SDS011;60138;55.808;37.078;2023-03-01T03:52:13;67.23;;;26.80;;
70213;SDS011;60138;55.808;37.078;2023-03-01T03:54:40;36.30;;;20.23;;
70213;SDS011;60138;55.808;37.078;2023-03-01T03:57:06;63.90;;;35.42;;
70213;SDS011;60138;55.808;37.078;2023-03-01T03:59:32;32.78;;;16.35;;
70213;SDS011;60138;55.808;37.078;2023-03-01T04:01:57;77.43;;;47.77;;
70213;SDS011;60138;55.808;37.078;2023-03-01T04:04:26;46.03;;;26.83;;
70213;SDS011;60138;55.808;37.078;2023-03-01T04:06:51;57.00;;;32.53;;
70213;SDS011;60138;55.808;37.078;2023-03-01T04:09:17;56.60;;;29.77;;
70213;SDS011;60138;55.808;37.078;2023-03-01T04:11:46;32.90;;;20.77;;
70213;SDS011;60138;55.808;37.078;2023-03-01T04:14:11;54.35;;;33.08;;
70213;SDS011;60138;55.808;37.078;2023-03-01T04:16:37;43.27;;;24.97;;
70213;SDS011;60138;55.808;37.078;2023-03-01T04:19:03;21.88;;;10.75;;
70213;SDS011;60138;55.808;37.078;2023-03-01T04:21:28;35.60;;;17.17;;
70213;SDS011;60138;55.808;37.078;2023-03-01T04:23:54;45.75;;;22.48;;
70213;SDS011;60138;55.808;37.078;2023-03-01T04:26:20;30.17;;;19.38;;
70213;SDS011;60138;55.808;37.078;2023-03-01T04:28:45;12.83;;;8.53;;
70213;SDS011;60138;55.808;37.078;2023-03-01T04:31:13;26.52;;;13.60;;
70213;SDS011;60138;55.808;37.078;2023-03-01T04:33:41;6.93;;;4.97;;
70213;SDS011;60138;55.808;37.078;2023-03-01T04:36:11;116.33;;;45.70;;
70213;SDS011;60138;55.808;37.078;2023-03-01T04:38:38;35.13;;;16.60;;
70213;SDS011;60138;55.808;37.078;2023-03-01T04:41:05;19.58;;;8.82;;
70213;SDS011;60138;55.808;37.078;2023-03-01T04:43:32;42.20;;;19.27;;
70213;SDS011;60138;55.808;37.078;2023-03-01T04:46:02;43.15;;;19.45;;
70213;SDS011;60138;55.808;37.078;2023-03-01T04:48:30;56.15;;;27.67;;
70213;SDS011;60138;55.808;37.078;2023-03-01T04:50:56;32.08;;;17.52;;
70213;SDS011;60138;55.808;37.078;2023-03-01T04:53:21;21.85;;;11.27;;
70213;SDS011;60138;55.808;37.078;2023-03-01T04:55:47;17.80;;;10.30;;
70213;SDS011;60138;55.808;37.078;2023-03-01T04:58:13;74.32;;;39.25;;
70213;SDS011;60138;55.808;37.078;2023-03-01T05:00:38;27.03;;;16.03;;
70213;SDS011;60138;55.808;37.078;2023-03-01T05:03:04;35.07;;;22.07;;
70213;SDS011;60138;55.808;37.078;2023-03-01T05:05:34;53.20;;;28.35;;
70213;SDS011;60138;55.808;37.078;2023-03-01T05:08:02;51.23;;;27.20;;
70213;SDS011;60138;55.808;37.078;2023-03-01T05:10:30;31.95;;;19.92;;
70213;SDS011;60138;55.808;37.078;2023-03-01T05:12:58;38.03;;;22.77;;
70213;SDS011;60138;55.808;37.078;2023-03-01T05:15:28;43.17;;;26.37;;
70213;SDS011;60138;55.808;37.078;2023-03-01T05:17:56;43.78;;;28.23;;
70213;SDS011;60138;55.808;37.078;2023-03-01T05:20:23;23.00;;;17.00;;
70213;SDS011;60138;55.808;37.078;2023-03-01T05:22:50;17.63;;;10.25;;
70213;SDS011;60138;55.808;37.078;2023-03-01T05:25:16;42.80;;;26.15;;
70213;SDS011;60138;55.808;37.078;2023-03-01T05:27:42;49.05;;;33.88;;
70213;SDS011;60138;55.808;37.078;2023-03-01T05:30:08;89.27;;;50.23;;
70213;SDS011;60138;55.808;37.078;2023-03-01T05:32:35;78.75;;;41.50;;
70213;SDS011;60138;55.808;37.078;2023-03-01T05:35:00;62.17;;;33.90;;
70213;SDS011;60138;55.808;37.078;2023-03-01T05:37:26;35.03;;;21.98;;
70213;SDS011;60138;55.808;37.078;2023-03-01T05:39:51;21.80;;;13.73;;
70213;SDS011;60138;55.808;37.078;2023-03-01T05:42:17;24.50;;;14.33;;
70213;SDS011;60138;55.808;37.078;2023-03-01T05:44:43;34.63;;;22.55;;
70213;SDS011;60138;55.808;37.078;2023-03-01T05:47:08;14.67;;;7.30;;
70213;SDS011;60138;55.808;37.078;2023-03-01T05:49:34;16.95;;;7.57;;
70213;SDS011;60138;55.808;37.078;2023-03-01T05:52:00;14.67;;;7.30;;
70213;SDS011;60138;55.808;37.078;2023-03-01T05:54:25;14.87;;;5.90;;
70213;SDS011;60138;55.808;37.078;2023-03-01T05:56:51;8.40;;;5.20;;
70213;SDS011;60138;55.808;37.078;2023-03-01T05:59:17;17.13;;;6.97;;
70213;SDS011;60138;55.808;37.078;2023-03-01T06:01:42;14.27;;;7.63;;
70213;SDS011;60138;55.808;37.078;2023-03-01T06:04:08;11.05;;;8.98;;
70213;SDS011;60138;55.808;37.078;2023-03-01T06:06:36;12.30;;;8.90;;
70213;SDS011;60138;55.808;37.078;2023-03-01T06:09:03;8.38;;;7.03;;
70213;SDS011;60138;55.808;37.078;2023-03-01T06:11:29;16.75;;;9.70;;
70213;SDS011;60138;55.808;37.078;2023-03-01T06:13:55;22.73;;;13.13;;
70213;SDS011;60138;55.808;37.078;2023-03-01T06:16:22;15.05;;;11.98;;
70213;SDS011;60138;55.808;37.078;2023-03-01T06:18:47;11.33;;;8.03;;
70213;SDS011;60138;55.808;37.078;2023-03-01T06:21:13;13.37;;;9.83;;
70213;SDS011;60138;55.808;37.078;2023-03-01T06:23:39;15.65;;;11.25;;
70213;SDS011;60138;55.808;37.078;2023-03-01T06:26:05;29.97;;;21.00;;
70213;SDS011;60138;55.808;37.078;2023-03-01T06:28:32;19.55;;;13.77;;
70213;SDS011;60138;55.808;37.078;2023-03-01T06:30:58;29.13;;;16.33;;
70213;SDS011;60138;55.808;37.078;2023-03-01T06:33:24;22.03;;;12.07;;
70213;SDS011;60138;55.808;37.078;2023-03-01T06:35:50;25.67;;;15.87;;
70213;SDS011;60138;55.808;37.078;2023-03-01T06:38:16;14.73;;;7.82;;
70213;SDS011;60138;55.808;37.078;2023-03-01T06:40:41;22.65;;;13.73;;
70213;SDS011;60138;55.808;37.078;2023-03-01T06:43:07;38.27;;;22.70;;
70213;SDS011;60138;55.808;37.078;2023-03-01T06:45:33;10.97;;;6.83;;
70213;SDS011;60138;55.808;37.078;2023-03-01T06:48:02;16.35;;;7.60;;
70213;SDS011;60138;55.808;37.078;2023-03-01T06:50:32;28.60;;;9.52;;
70213;SDS011;60138;55.808;37.078;2023-03-01T06:52:59;29.95;;;15.55;;
70213;SDS011;60138;55.808;37.078;2023-03-01T06:55:25;33.10;;;11.52;;
70213;SDS011;60138;55.808;37.078;2023-03-01T06:58:00;12.48;;;6.15;;
70213;SDS011;60138;55.808;37.078;2023-03-01T07:00:27;9.43;;;5.83;;
70213;SDS011;60138;55.808;37.078;2023-03-01T07:02:54;9.50;;;6.38;;
70213;SDS011;60138;55.808;37.078;2023-03-01T07:05:20;19.75;;;6.70;;
70213;SDS011;60138;55.808;37.078;2023-03-01T07:07:46;25.67;;;8.65;;
70213;SDS011;60138;55.808;37.078;2023-03-01T07:10:12;9.55;;;5.00;;
70213;SDS011;60138;55.808;37.078;2023-03-01T07:12:38;16.10;;;6.70;;
70213;SDS011;60138;55.808;37.078;2023-03-01T07:15:04;23.17;;;7.13;;
70213;SDS011;60138;55.808;37.078;2023-03-01T07:17:30;11.25;;;5.65;;
70213;SDS011;60138;55.808;37.078;2023-03-01T07:19:56;18.60;;;7.20;;
70213;SDS011;60138;55.808;37.078;2023-03-01T07:22:22;21.25;;;7.97;;
70213;SDS011;60138;55.808;37.078;2023-03-01T07:24:47;13.97;;;6.57;;
70213;SDS011;60138;55.808;37.078;2023-03-01T07:27:13;34.83;;;9.73;;
70213;SDS011;60138;55.808;37.078;2023-03-01T07:29:39;13.70;;;6.40;;
70213;SDS011;60138;55.808;37.078;2023-03-01T07:32:05;7.18;;;5.28;;
70213;SDS011;60138;55.808;37.078;2023-03-01T07:34:31;20.17;;;7.90;;
70213;SDS011;60138;55.808;37.078;2023-03-01T07:36:56;10.77;;;5.50;;
70213;SDS011;60138;55.808;37.078;2023-03-01T07:39:23;6.83;;;4.10;;
70213;SDS011;60138;55.808;37.078;2023-03-01T07:41:49;7.57;;;4.43;;
70213;SDS011;60138;55.808;37.078;2023-03-01T07:44:20;11.13;;;5.18;;
70213;SDS011;60138;55.808;37.078;2023-03-01T07:46:45;9.67;;;5.60;;
70213;SDS011;60138;55.808;37.078;2023-03-01T07:49:11;16.42;;;6.55;;
70213;SDS011;60138;55.808;37.078;2023-03-01T07:51:37;5.77;;;4.50;;
70213;SDS011;60138;55.808;37.078;2023-03-01T07:54:02;5.75;;;4.65;;
70213;SDS011;60138;55.808;37.078;2023-03-01T07:56:28;5.83;;;4.10;;
70213;SDS011;60138;55.808;37.078;2023-03-01T07:58:54;9.20;;;5.88;;
70213;SDS011;60138;55.808;37.078;2023-03-01T08:01:21;8.52;;;5.03;;
70213;SDS011;60138;55.808;37.078;2023-03-01T08:03:47;17.88;;;9.02;;
70213;SDS011;60138;55.808;37.078;2023-03-01T08:06:14;6.90;;;4.47;;
70213;SDS011;60138;55.808;37.078;2023-03-01T08:08:42;10.00;;;5.50;;
70213;SDS011;60138;55.808;37.078;2023-03-01T08:11:09;10.33;;;5.73;;
70213;SDS011;60138;55.808;37.078;2023-03-01T08:13:36;6.57;;;4.65;;
70213;SDS011;60138;55.808;37.078;2023-03-01T08:16:06;7.10;;;4.53;;
70213;SDS011;60138;55.808;37.078;2023-03-01T08:18:33;7.97;;;4.20;;
70213;SDS011;60138;55.808;37.078;2023-03-01T08:21:09;17.30;;;6.32;;
70213;SDS011;60138;55.808;37.078;2023-03-01T08:23:39;11.43;;;5.77;;
70213;SDS011;60138;55.808;37.078;2023-03-01T08:26:09;11.07;;;5.05;;
70213;SDS011;60138;55.808;37.078;2023-03-01T08:28:36;7.40;;;4.07;;
70213;SDS011;60138;55.808;37.078;2023-03-01T08:31:02;5.40;;;4.53;;
70213;SDS011;60138;55.808;37.078;2023-03-01T08:33:38;10.77;;;4.78;;
70213;SDS011;60138;55.808;37.078;2023-03-01T08:36:04;11.40;;;6.83;;
70213;SDS011;60138;55.808;37.078;2023-03-01T08:38:30;8.15;;;3.90;;
70213;SDS011;60138;55.808;37.078;2023-03-01T08:40:58;8.37;;;3.57;;
70213;SDS011;60138;55.808;37.078;2023-03-01T08:43:25;10.23;;;4.32;;
70213;SDS011;60138;55.808;37.078;2023-03-01T08:45:50;7.80;;;4.77;;
70213;SDS011;60138;55.808;37.078;2023-03-01T08:48:16;4.55;;;3.70;;
70213;SDS011;60138;55.808;37.078;2023-03-01T08:50:42;9.40;;;4.97;;
70213;SDS011;60138;55.808;37.078;2023-03-01T08:53:07;12.23;;;7.40;;
70213;SDS011;60138;55.808;37.078;2023-03-01T08:55:33;7.57;;;4.93;;
70213;SDS011;60138;55.808;37.078;2023-03-01T08:57:59;6.87;;;4.07;;
70213;SDS011;60138;55.808;37.078;2023-03-01T09:00:24;9.17;;;5.60;;
70213;SDS011;60138;55.808;37.078;2023-03-01T09:02:50;6.88;;;5.03;;
70213;SDS011;60138;55.808;37.078;2023-03-01T09:05:16;10.20;;;5.50;;
70213;SDS011;60138;55.808;37.078;2023-03-01T09:07:41;7.95;;;5.15;;
70213;SDS011;60138;55.808;37.078;2023-03-01T09:10:07;13.90;;;5.13;;
70213;SDS011;60138;55.808;37.078;2023-03-01T09:12:34;17.00;;;6.53;;
70213;SDS011;60138;55.808;37.078;2023-03-01T09:14:59;14.13;;;6.10;;
70213;SDS011;60138;55.808;37.078;2023-03-01T09:17:25;9.20;;;5.13;;
70213;SDS011;60138;55.808;37.078;2023-03-01T09:19:51;10.90;;;5.00;;
70213;SDS011;60138;55.808;37.078;2023-03-01T09:22:16;12.20;;;5.00;;
70213;SDS011;60138;55.808;37.078;2023-03-01T09:24:42;9.00;;;4.93;;
70213;SDS011;60138;55.808;37.078;2023-03-01T09:27:08;7.60;;;4.23;;
70213;SDS011;60138;55.808;37.078;2023-03-01T09:29:33;5.18;;;3.58;;
70213;SDS011;60138;55.808;37.078;2023-03-01T09:32:00;12.70;;;4.97;;
70213;SDS011;60138;55.808;37.078;2023-03-01T09:34:26;12.35;;;6.75;;
70213;SDS011;60138;55.808;37.078;2023-03-01T09:36:52;6.30;;;4.90;;
70213;SDS011;60138;55.808;37.078;2023-03-01T09:39:18;12.75;;;5.95;;
70213;SDS011;60138;55.808;37.078;2023-03-01T09:41:49;16.83;;;5.50;;
70213;SDS011;60138;55.808;37.078;2023-03-01T09:46:58;11.57;;;5.25;;
70213;SDS011;60138;55.808;37.078;2023-03-01T09:49:26;10.95;;;6.53;;
70213;SDS011;60138;55.808;37.078;2023-03-01T09:51:55;13.85;;;5.60;;
70213;SDS011;60138;55.808;37.078;2023-03-01T09:54:24;4.32;;;3.85;;
70213;SDS011;60138;55.808;37.078;2023-03-01T09:57:01;9.43;;;4.33;;
70213;SDS011;60138;55.808;37.078;2023-03-01T09:59:55;8.95;;;4.75;;
70213;SDS011;60138;55.808;37.078;2023-03-01T10:02:43;13.05;;;6.20;;
70213;SDS011;60138;55.808;37.078;2023-03-01T10:07:52;8.25;;;4.72;;
70213;SDS011;60138;55.808;37.078;2023-03-01T10:10:40;4.28;;;3.63;;
70213;SDS011;60138;55.808;37.078;2023-03-01T10:16:18;13.77;;;6.07;;
70213;SDS011;60138;55.808;37.078;2023-03-01T10:18:55;12.38;;;5.15;;
70213;SDS011;60138;55.808;37.078;2023-03-01T10:21:25;6.97;;;4.65;;
70213;SDS011;60138;55.808;37.078;2023-03-01T10:23:52;6.13;;;3.73;;
70213;SDS011;60138;55.808;37.078;2023-03-01T10:29:03;5.43;;;4.15;;
70213;SDS011;60138;55.808;37.078;2023-03-01T10:31:52;7.80;;;4.57;;
70213;SDS011;60138;55.808;37.078;2023-03-01T10:34:19;10.68;;;3.72;;
70213;SDS011;60138;55.808;37.078;2023-03-01T10:36:55;5.78;;;4.53;;
70213;SDS011;60138;55.808;37.078;2023-03-01T10:39:23;6.28;;;4.60;;
70213;SDS011;60138;55.808;37.078;2023-03-01T10:47:13;14.27;;;4.97;;
70213;SDS011;60138;55.808;37.078;2023-03-01T10:50:04;4.87;;;3.80;;
70213;SDS011;60138;55.808;37.078;2023-03-01T10:52:55;5.75;;;4.13;;
70213;SDS011;60138;55.808;37.078;2023-03-01T10:58:39;8.00;;;4.27;;
70213;SDS011;60138;55.808;37.078;2023-03-01T11:03:22;6.60;;;3.90;;
70213;SDS011;60138;55.808;37.078;2023-03-01T11:05:51;5.40;;;4.38;;
70213;SDS011;60138;55.808;37.078;2023-03-01T11:08:30;11.45;;;7.18;;
70213;SDS011;60138;55.808;37.078;2023-03-01T11:13:57;17.67;;;6.65;;
70213;SDS011;60138;55.808;37.078;2023-03-01T11:16:31;6.07;;;4.07;;
70213;SDS011;60138;55.808;37.078;2023-03-01T11:21:34;9.75;;;5.40;;
70213;SDS011;60138;55.808;37.078;2023-03-01T11:24:19;5.43;;;3.93;;
70213;SDS011;60138;55.808;37.078;2023-03-01T11:26:53;5.90;;;4.15;;
70213;SDS011;60138;55.808;37.078;2023-03-01T11:31:59;7.28;;;3.40;;
70213;SDS011;60138;55.808;37.078;2023-03-01T11:37:09;4.30;;;3.50;;
70213;SDS011;60138;55.808;37.078;2023-03-01T11:39:50;5.95;;;3.75;;
70213;SDS011;60138;55.808;37.078;2023-03-01T11:45:02;5.55;;;3.70;;
70213;SDS011;60138;55.808;37.078;2023-03-01T11:58:57;4.95;;;4.20;;
70213;SDS011;60138;55.808;37.078;2023-03-01T12:01:28;6.78;;;3.78;;
70213;SDS011;60138;55.808;37.078;2023-03-01T12:12:28;4.38;;;3.97;;
70213;SDS011;60138;55.808;37.078;2023-03-01T12:26:16;11.43;;;6.43;;
70213;SDS011;60138;55.808;37.078;2023-03-01T12:34:21;6.60;;;4.55;;
70213;SDS011;60138;55.808;37.078;2023-03-01T12:42:39;7.23;;;3.87;;
70213;SDS011;60138;55.808;37.078;2023-03-01T12:51:04;5.00;;;4.20;;
70213;SDS011;60138;55.808;37.078;2023-03-01T12:53:41;6.65;;;3.92;;
70213;SDS011;60138;55.808;37.078;2023-03-01T12:56:12;7.03;;;3.90;;
70213;SDS011;60138;55.808;37.078;2023-03-01T13:01:54;3.90;;;3.50;;
70213;SDS011;60138;55.808;37.078;2023-03-01T13:12:44;7.78;;;3.97;;
70213;SDS011;60138;55.808;37.078;2023-03-01T13:17:49;5.70;;;3.47;;
70213;SDS011;60138;55.808;37.078;2023-03-01T13:20:29;6.07;;;4.25;;
70213;SDS011;60138;55.808;37.078;2023-03-01T13:23:03;4.85;;;3.85;;
70213;SDS011;60138;55.808;37.078;2023-03-01T13:25:29;3.70;;;2.90;;
70213;SDS011;60138;55.808;37.078;2023-03-01T13:28:35;4.65;;;4.15;;
70213;SDS011;60138;55.808;37.078;2023-03-01T13:31:01;5.03;;;3.58;;
70213;SDS011;60138;55.808;37.078;2023-03-01T13:35:55;5.85;;;4.43;;
70213;SDS011;60138;55.808;37.078;2023-03-01T13:41:10;5.95;;;4.00;;
70213;SDS011;60138;55.808;37.078;2023-03-01T13:43:36;6.10;;;3.92;;
70213;SDS011;60138;55.808;37.078;2023-03-01T13:46:21;7.25;;;3.90;;
70213;SDS011;60138;55.808;37.078;2023-03-01T13:48:50;5.35;;;3.60;;
70213;SDS011;60138;55.808;37.078;2023-03-01T13:51:20;6.03;;;3.78;;
70213;SDS011;60138;55.808;37.078;2023-03-01T13:53:50;4.50;;;3.67;;
70213;SDS011;60138;55.808;37.078;2023-03-01T13:56:17;5.25;;;4.15;;
70213;SDS011;60138;55.808;37.078;2023-03-01T14:01:30;6.60;;;3.67;;
70213;SDS011;60138;55.808;37.078;2023-03-01T14:03:58;6.80;;;3.92;;
70213;SDS011;60138;55.808;37.078;2023-03-01T14:06:25;6.65;;;3.75;;
70213;SDS011;60138;55.808;37.078;2023-03-01T14:09:10;6.88;;;3.80;;
70213;SDS011;60138;55.808;37.078;2023-03-01T14:19:30;5.90;;;4.07;;
70213;SDS011;60138;55.808;37.078;2023-03-01T14:24:38;12.55;;;4.40;;
70213;SDS011;60138;55.808;37.078;2023-03-01T14:27:12;4.97;;;4.07;;
70213;SDS011;60138;55.808;37.078;2023-03-01T14:29:39;8.85;;;3.75;;
70213;SDS011;60138;55.808;37.078;2023-03-01T14:32:24;9.20;;;4.78;;
70213;SDS011;60138;55.808;37.078;2023-03-01T14:34:52;4.47;;;4.05;;
70213;SDS011;60138;55.808;37.078;2023-03-01T14:39:43;9.32;;;5.40;;
70213;SDS011;60138;55.808;37.078;2023-03-01T14:42:09;6.57;;;3.65;;
70213;SDS011;60138;55.808;37.078;2023-03-01T14:44:35;5.73;;;4.20;;
70213;SDS011;60138;55.808;37.078;2023-03-01T14:47:00;9.73;;;5.03;;
70213;SDS011;60138;55.808;37.078;2023-03-01T14:49:27;9.27;;;4.27;;
70213;SDS011;60138;55.808;37.078;2023-03-01T14:51:57;5.80;;;4.50;;
70213;SDS011;60138;55.808;37.078;2023-03-01T14:54:26;5.03;;;4.22;;
70213;SDS011;60138;55.808;37.078;2023-03-01T14:57:01;4.70;;;3.63;;
70213;SDS011;60138;55.808;37.078;2023-03-01T14:59:27;5.13;;;3.17;;
70213;SDS011;60138;55.808;37.078;2023-03-01T15:01:55;4.57;;;3.20;;
70213;SDS011;60138;55.808;37.078;2023-03-01T15:04:23;3.73;;;3.43;;
70213;SDS011;60138;55.808;37.078;2023-03-01T15:06:53;4.13;;;3.10;;
70213;SDS011;60138;55.808;37.078;2023-03-01T15:09:20;5.72;;;3.50;;
70213;SDS011;60138;55.808;37.078;2023-03-01T15:11:47;7.90;;;4.53;;
70213;SDS011;60138;55.808;37.078;2023-03-01T15:14:37;5.53;;;4.22;;
70213;SDS011;60138;55.808;37.078;2023-03-01T15:17:41;5.15;;;3.72;;
70213;SDS011;60138;55.808;37.078;2023-03-01T15:20:02;4.35;;;3.85;;
70213;SDS011;60138;55.808;37.078;2023-03-01T15:22:31;4.70;;;4.20;;
70213;SDS011;60138;55.808;37.078;2023-03-01T15:24:56;3.92;;;3.50;;
70213;SDS011;60138;55.808;37.078;2023-03-01T15:27:23;8.43;;;3.87;;
70213;SDS011;60138;55.808;37.078;2023-03-01T15:29:54;5.53;;;4.20;;
70213;SDS011;60138;55.808;37.078;2023-03-01T15:34:50;4.63;;;4.10;;
70213;SDS011;60138;55.808;37.078;2023-03-01T15:40:17;4.15;;;3.72;;
70213;SDS011;60138;55.808;37.078;2023-03-01T15:42:46;4.97;;;3.80;;
70213;SDS011;60138;55.808;37.078;2023-03-01T15:47:40;4.40;;;3.55;;
70213;SDS011;60138;55.808;37.078;2023-03-01T15:50:16;8.30;;;3.83;;
70213;SDS011;60138;55.808;37.078;2023-03-01T15:52:45;4.67;;;3.57;;
70213;SDS011;60138;55.808;37.078;2023-03-01T15:55:25;5.50;;;4.78;;
70213;SDS011;60138;55.808;37.078;2023-03-01T15:57:57;6.47;;;3.90;;
70213;SDS011;60138;55.808;37.078;2023-03-01T16:00:31;5.30;;;3.40;;
70213;SDS011;60138;55.808;37.078;2023-03-01T16:02:57;6.88;;;4.10;;
70213;SDS011;60138;55.808;37.078;2023-03-01T16:05:25;6.00;;;3.57;;
70213;SDS011;60138;55.808;37.078;2023-03-01T16:07:53;4.78;;;3.17;;
70213;SDS011;60138;55.808;37.078;2023-03-01T16:10:19;7.50;;;3.47;;
70213;SDS011;60138;55.808;37.078;2023-03-01T16:12:46;5.35;;;3.92;;
70213;SDS011;60138;55.808;37.078;2023-03-01T16:15:22;10.97;;;5.10;;
70213;SDS011;60138;55.808;37.078;2023-03-01T16:17:49;5.93;;;3.45;;
70213;SDS011;60138;55.808;37.078;2023-03-01T16:20:21;6.13;;;3.92;;
70213;SDS011;60138;55.808;37.078;2023-03-01T16:22:47;7.43;;;3.07;;
70213;SDS011;60138;55.808;37.078;2023-03-01T16:25:14;5.70;;;3.20;;
70213;SDS011;60138;55.808;37.078;2023-03-01T16:27:42;6.60;;;4.55;;
70213;SDS011;60138;55.808;37.078;2023-03-01T16:30:09;12.30;;;4.30;;
70213;SDS011;60138;55.808;37.078;2023-03-01T16:32:39;5.07;;;3.92;;
70213;SDS011;60138;55.808;37.078;2023-03-01T16:35:06;4.47;;;3.20;;
70213;SDS011;60138;55.808;37.078;2023-03-01T16:37:33;4.97;;;3.77;;
70213;SDS011;60138;55.808;37.078;2023-03-01T16:39:59;8.23;;;4.72;;
70213;SDS011;60138;55.808;37.078;2023-03-01T16:42:25;4.70;;;3.80;;
70213;SDS011;60138;55.808;37.078;2023-03-01T16:44:55;7.37;;;4.33;;
70213;SDS011;60138;55.808;37.078;2023-03-01T16:47:21;9.57;;;4.30;;
70213;SDS011;60138;55.808;37.078;2023-03-01T16:49:51;5.85;;;3.40;;
70213;SDS011;60138;55.808;37.078;2023-03-01T16:52:17;4.30;;;3.60;;
70213;SDS011;60138;55.808;37.078;2023-03-01T16:54:42;7.03;;;4.32;;
70213;SDS011;60138;55.808;37.078;2023-03-01T16:57:08;5.37;;;4.00;;
70213;SDS011;60138;55.808;37.078;2023-03-01T16:59:34;4.30;;;3.20;;
70213;SDS011;60138;55.808;37.078;2023-03-01T17:01:59;4.67;;;3.47;;
70213;SDS011;60138;55.808;37.078;2023-03-01T17:04:25;5.00;;;3.80;;